createdAt,value
2022-09-23T00:01:08.395Z,5.57
2022-09-23T00:03:37.161Z,5.52
2022-09-23T00:06:08.389Z,5.39
2022-09-23T00:08:35.181Z,5.33
2022-09-23T00:11:07.006Z,5.43
2022-09-23T00:13:34.464Z,5.09
2022-09-23T00:16:11.205Z,5.34
2022-09-23T00:18:38.017Z,5.34
2022-09-23T00:21:10.055Z,5.30
2022-09-23T00:23:36.977Z,5.22
2022-09-23T00:26:05.780Z,5.18
2022-09-23T00:28:33.132Z,5.07
2022-09-23T00:31:04.594Z,5.14
2022-09-23T00:33:31.186Z,5.07
2022-09-23T00:36:02.002Z,5.08
2022-09-23T00:38:28.994Z,5.09
2022-09-23T00:40:55.430Z,5.13
2022-09-23T00:43:44.965Z,5.07
2022-09-23T00:46:22.294Z,4.73
2022-09-23T00:48:55.563Z,4.92
2022-09-23T00:51:27.410Z,5.06
2022-09-23T00:53:53.785Z,5.08
2022-09-23T00:56:22.781Z,5.09
2022-09-23T00:58:51.058Z,5.09
2022-09-23T01:01:19.064Z,4.98
2022-09-23T01:07:26.043Z,4.95
2022-09-23T01:09:53.045Z,4.93
2022-09-23T01:12:37.781Z,4.91
2022-09-23T01:15:12.210Z,4.85
2022-09-23T01:18:01.434Z,4.79
2022-09-23T01:20:50.549Z,4.63
2022-09-23T01:24:02.431Z,4.74
2022-09-23T01:27:10.278Z,4.73
2022-09-23T01:30:03.678Z,4.75
2022-09-23T01:33:01.327Z,4.75
2022-09-23T01:35:47.728Z,4.71
2022-09-23T01:38:25.497Z,4.71
2022-09-23T01:41:25.416Z,4.60
2022-09-23T01:44:05.363Z,4.64
2022-09-23T01:46:40.578Z,4.61
2022-09-23T01:49:20.040Z,4.68
2022-09-23T01:51:53.888Z,4.67
2022-09-23T01:54:28.592Z,4.65
2022-09-23T01:57:03.975Z,4.59
2022-09-23T01:59:44.909Z,4.55
2022-09-23T02:02:19.312Z,4.51
2022-09-23T02:04:54.012Z,4.46
2022-09-23T02:07:27.278Z,4.50
2022-09-23T02:10:25.355Z,4.48
2022-09-23T02:13:07.367Z,4.48
2022-09-23T02:15:45.821Z,4.50
2022-09-23T02:18:21.672Z,4.54
2022-09-23T02:20:55.221Z,4.45
2022-09-23T02:23:27.519Z,4.43
2022-09-23T02:26:02.129Z,4.42
2022-09-23T02:28:48.748Z,4.31
2022-09-23T02:31:24.786Z,4.27
2022-09-23T02:34:01.506Z,4.31
2022-09-23T02:36:36.790Z,4.34
2022-09-23T02:39:08.587Z,4.35
2022-09-23T02:42:02.274Z,4.40
2022-09-23T02:44:28.958Z,4.35
2022-09-23T02:46:56.787Z,4.40
2022-09-23T02:49:29.356Z,4.39
2022-09-23T02:51:59.462Z,4.44
2022-09-23T02:54:28.639Z,4.38
2022-09-23T02:56:55.328Z,4.33
2022-09-23T02:59:23.717Z,4.24
2022-09-23T03:02:24.326Z,4.25
2022-09-23T03:05:08.648Z,4.19
2022-09-23T03:08:12.877Z,4.22
2022-09-23T03:11:04.232Z,4.15
2022-09-23T03:13:35.203Z,4.18
2022-09-23T03:16:09.082Z,4.11
2022-09-23T03:18:41.796Z,4.11
2022-09-23T03:21:11.339Z,4.01
2022-09-23T03:23:41.199Z,4.03
2022-09-23T03:26:13.009Z,3.97
2022-09-23T03:28:43.614Z,4.03
2022-09-23T03:31:12.817Z,3.91
2022-09-23T03:33:44.844Z,3.79
2022-09-23T03:36:33.609Z,3.85
2022-09-23T03:39:07.008Z,3.84
2022-09-23T03:41:39.468Z,3.81
2022-09-23T03:44:08.016Z,3.84
2022-09-23T03:46:36.052Z,3.87
2022-09-23T03:49:16.578Z,3.81
2022-09-23T03:51:44.802Z,3.75
2022-09-23T03:54:11.674Z,3.79
2022-09-23T03:56:38.025Z,3.72
2022-09-23T03:59:04.400Z,3.77
2022-09-23T04:01:31.058Z,3.79
2022-09-23T04:03:57.434Z,3.81
2022-09-23T04:06:23.783Z,3.80
2022-09-23T04:08:50.688Z,3.79
2022-09-23T04:11:17.168Z,3.82
2022-09-23T04:13:43.702Z,3.75
2022-09-23T04:16:10.297Z,3.73
2022-09-23T04:18:36.669Z,3.71
2022-09-23T04:21:03.122Z,3.71
2022-09-23T04:23:29.852Z,3.73
2022-09-23T04:25:56.256Z,3.74
2022-09-23T04:28:23.220Z,3.64
2022-09-23T04:30:49.649Z,3.62
2022-09-23T04:33:16.333Z,3.63
2022-09-23T04:35:45.633Z,3.59
2022-09-23T04:38:12.685Z,3.49
2022-09-23T04:40:39.508Z,3.59
2022-09-23T04:43:07.801Z,3.57
2022-09-23T04:45:36.062Z,3.58
2022-09-23T04:48:03.435Z,3.60
2022-09-23T04:50:29.838Z,3.66
2022-09-23T04:52:56.174Z,3.68
2022-09-23T04:55:22.586Z,3.63
2022-09-23T04:57:48.965Z,3.64
2022-09-23T05:00:15.667Z,3.68
2022-09-23T05:02:43.436Z,3.60
2022-09-23T05:05:09.789Z,3.62
2022-09-23T05:07:36.149Z,3.57
2022-09-23T05:10:02.563Z,3.44
2022-09-23T05:12:28.917Z,3.53
2022-09-23T05:14:55.897Z,3.54
2022-09-23T05:17:22.312Z,3.52
2022-09-23T05:19:48.685Z,3.52
2022-09-23T05:22:15.053Z,3.52
2022-09-23T05:24:41.455Z,3.47
2022-09-23T05:27:07.780Z,3.50
2022-09-23T05:29:34.812Z,3.52
2022-09-23T05:32:04.217Z,3.53
2022-09-23T05:34:30.627Z,3.53
2022-09-23T05:36:58.259Z,3.56
2022-09-23T05:39:24.628Z,3.62
2022-09-23T05:41:50.953Z,3.65
2022-09-23T05:44:17.452Z,3.87
2022-09-23T05:46:43.888Z,3.85
2022-09-23T05:49:10.550Z,3.87
2022-09-23T05:51:36.960Z,3.97
2022-09-23T05:54:05.741Z,4.01
2022-09-23T05:56:33.597Z,4.20
2022-09-23T05:59:01.840Z,4.25
2022-09-23T06:01:32.141Z,4.31
2022-09-23T06:03:59.692Z,4.39
2022-09-23T06:06:28.559Z,4.49
2022-09-23T06:08:55.096Z,4.49
2022-09-23T06:11:21.622Z,4.75
2022-09-23T06:13:49.371Z,4.67
2022-09-23T06:16:16.441Z,4.62
2022-09-23T06:18:45.123Z,4.82
2022-09-23T06:21:16.366Z,5.05
2022-09-23T06:23:43.863Z,5.33
2022-09-23T06:26:12.474Z,5.51
2022-09-23T06:28:41.218Z,5.67
2022-09-23T06:31:13.482Z,5.76
2022-09-23T06:33:41.195Z,5.83
2022-09-23T06:36:08.344Z,6.11
2022-09-23T06:38:35.607Z,6.12
2022-09-23T06:41:03.442Z,6.01
2022-09-23T06:43:30.617Z,6.11
2022-09-23T06:45:59.440Z,6.29
2022-09-23T06:48:27.027Z,6.72
2022-09-23T06:50:54.388Z,6.53
2022-09-23T06:53:24.864Z,6.80
2022-09-23T06:56:02.016Z,7.88
2022-09-23T06:58:29.230Z,7.91
2022-09-23T07:01:08.067Z,9.62
2022-09-23T07:03:35.470Z,10.09
2022-09-23T07:06:02.982Z,10.49
2022-09-23T07:08:30.524Z,10.98
2022-09-23T07:10:59.312Z,11.29
2022-09-23T07:13:26.113Z,10.48
2022-09-23T07:15:54.825Z,11.71
2022-09-23T07:18:23.855Z,11.27
2022-09-23T07:20:51.514Z,10.43
2022-09-23T07:23:18.018Z,10.82
2022-09-23T07:25:46.748Z,10.96
2022-09-23T07:28:13.662Z,12.05
2022-09-23T07:30:49.139Z,12.39
2022-09-23T07:33:31.152Z,13.18
2022-09-23T07:35:58.810Z,13.83
2022-09-23T07:38:30.219Z,14.09
2022-09-23T07:41:05.595Z,11.74
2022-09-23T07:43:32.790Z,12.81
2022-09-23T07:46:05.400Z,11.56
2022-09-23T07:48:34.292Z,11.23
2022-09-23T07:51:06.382Z,11.76
2022-09-23T07:53:33.370Z,12.34
2022-09-23T07:55:59.723Z,12.05
2022-09-23T07:58:26.214Z,12.11
2022-09-23T08:00:53.590Z,11.70
2022-09-23T08:03:21.225Z,12.74
2022-09-23T08:05:47.646Z,12.39
2022-09-23T08:08:14.162Z,13.23
2022-09-23T08:10:40.702Z,13.84
2022-09-23T08:13:07.094Z,14.12
2022-09-23T08:15:33.623Z,13.22
2022-09-23T08:18:00.468Z,13.43
2022-09-23T08:20:47.738Z,14.31
2022-09-23T08:23:16.662Z,14.29
2022-09-23T08:25:46.941Z,14.79
2022-09-23T08:28:18.586Z,14.70
2022-09-23T08:30:48.633Z,15.21
2022-09-23T08:33:19.684Z,14.84
2022-09-23T08:35:49.326Z,14.54
2022-09-23T08:38:16.115Z,15.08
2022-09-23T08:40:45.572Z,15.66
2022-09-23T08:43:22.065Z,16.61
2022-09-23T08:45:51.253Z,17.86
2022-09-23T08:48:29.667Z,18.31
2022-09-23T08:51:05.276Z,15.78
2022-09-23T08:53:36.685Z,16.90
2022-09-23T08:56:07.169Z,16.00
2022-09-23T08:59:01.824Z,16.00
2022-09-23T09:01:45.155Z,16.16
2022-09-23T09:04:19.085Z,15.74
2022-09-23T09:06:54.380Z,16.25
2022-09-23T09:09:26.993Z,16.60
2022-09-23T09:12:02.830Z,17.03
2022-09-23T09:14:57.485Z,18.51
2022-09-23T09:17:38.174Z,19.60
2022-09-23T09:20:23.410Z,18.87
2022-09-23T09:22:52.851Z,19.37
2022-09-23T09:25:32.126Z,19.07
2022-09-23T09:28:01.270Z,18.87
2022-09-23T09:30:28.173Z,18.93
2022-09-23T09:33:01.737Z,19.15
2022-09-23T09:35:40.586Z,19.14
2022-09-23T09:38:07.865Z,18.66
2022-09-23T09:40:35.137Z,18.77
2022-09-23T09:43:04.632Z,18.67
2022-09-23T09:45:39.384Z,19.63
2022-09-23T09:48:22.665Z,18.92
2022-09-23T09:50:50.803Z,18.85
2022-09-23T09:53:22.347Z,18.02
2022-09-23T09:56:08.804Z,18.51
2022-09-23T09:59:11.034Z,18.01
2022-09-23T10:01:38.170Z,18.50
2022-09-23T10:04:20.024Z,18.00
2022-09-23T10:07:15.474Z,18.61
2022-09-23T10:09:50.721Z,17.66
2022-09-23T10:12:23.303Z,17.96
2022-09-23T10:14:57.067Z,17.90
2022-09-23T10:17:29.643Z,17.23
2022-09-23T10:20:02.837Z,18.66
2022-09-23T10:22:33.690Z,18.61
2022-09-23T10:25:07.417Z,17.93
2022-09-23T10:27:35.874Z,19.30
2022-09-23T10:30:21.673Z,18.66
2022-09-23T10:32:49.700Z,19.85
2022-09-23T10:35:24.489Z,18.59
2022-09-23T10:38:00.546Z,19.40
2022-09-23T10:40:51.099Z,19.28
2022-09-23T10:43:42.008Z,18.68
2022-09-23T10:46:35.693Z,17.97
2022-09-23T10:49:16.449Z,17.88
2022-09-23T10:52:09.767Z,18.77
2022-09-23T10:55:13.517Z,17.57
2022-09-23T10:57:45.985Z,18.39
2022-09-23T11:00:32.533Z,17.76
2022-09-23T11:03:10.674Z,18.27
2022-09-23T11:05:41.213Z,19.07
2022-09-23T11:08:56.190Z,19.29
2022-09-23T11:11:54.893Z,18.30
2022-09-23T11:14:38.857Z,18.96
2022-09-23T11:17:28.321Z,19.04
2022-09-23T11:20:28.007Z,19.53
2022-09-23T11:23:32.215Z,19.72
2022-09-23T11:26:32.230Z,20.23
2022-09-23T11:29:25.660Z,20.26
2022-09-23T11:32:30.982Z,20.74
2022-09-23T11:35:12.268Z,20.11
2022-09-23T11:37:44.307Z,20.27
2022-09-23T11:40:34.985Z,21.02
2022-09-23T11:43:07.589Z,22.05
2022-09-23T11:45:56.483Z,20.03
2022-09-23T11:48:45.994Z,19.54
2022-09-23T11:51:19.504Z,19.68
2022-09-23T11:53:59.786Z,19.58
2022-09-23T11:56:38.130Z,20.78
2022-09-23T11:59:39.149Z,21.46
2022-09-23T12:02:30.718Z,21.08
2022-09-23T12:05:06.706Z,21.33
2022-09-23T12:07:57.949Z,21.54
2022-09-23T12:10:40.556Z,22.02
2022-09-23T12:13:21.764Z,23.13
2022-09-23T12:16:50.970Z,20.79
2022-09-23T12:19:51.714Z,21.96
2022-09-23T12:22:39.139Z,21.75
2022-09-23T12:25:35.534Z,21.68
2022-09-23T12:28:15.240Z,22.02
2022-09-23T12:30:42.873Z,21.41
2022-09-23T12:33:35.717Z,21.96
2022-09-23T12:36:07.488Z,22.89
2022-09-23T12:38:46.949Z,22.66
2022-09-23T12:41:37.631Z,21.41
2022-09-23T12:44:23.415Z,22.14
2022-09-23T12:47:20.973Z,24.00
2022-09-23T12:49:48.502Z,21.66
2022-09-23T12:52:17.665Z,23.24
2022-09-23T12:54:49.391Z,21.87
2022-09-23T12:57:33.888Z,22.20
2022-09-23T13:00:13.226Z,22.09
2022-09-23T13:03:11.594Z,21.87
2022-09-23T13:06:19.422Z,21.58
2022-09-23T13:08:47.294Z,21.76
2022-09-23T13:11:42.699Z,21.43
2022-09-23T13:14:13.294Z,20.92
2022-09-23T13:16:44.309Z,21.00
2022-09-23T13:19:25.874Z,21.68
2022-09-23T13:21:53.202Z,21.54
2022-09-23T13:24:22.610Z,20.28
2022-09-23T13:26:50.919Z,20.58
2022-09-23T13:29:23.824Z,21.21
2022-09-23T13:31:50.404Z,19.60
2022-09-23T13:34:21.510Z,20.20
2022-09-23T13:36:49.275Z,19.76
2022-09-23T13:39:29.441Z,19.19
2022-09-23T13:42:01.289Z,18.96
2022-09-23T13:44:28.732Z,19.48
2022-09-23T13:46:59.180Z,18.64
2022-09-23T13:49:35.272Z,18.94
2022-09-23T13:52:02.661Z,18.93
2022-09-23T13:54:36.235Z,19.34
2022-09-23T13:57:03.145Z,18.76
2022-09-23T13:59:41.304Z,18.39
2022-09-23T14:02:13.015Z,18.23
2022-09-23T14:04:40.240Z,18.72
2022-09-23T14:07:12.131Z,18.60
2022-09-23T14:09:44.061Z,18.14
2022-09-23T14:12:11.431Z,18.52
2022-09-23T14:14:41.395Z,18.22
2022-09-23T14:17:08.904Z,19.04
2022-09-23T14:19:36.959Z,18.50
2022-09-23T14:22:03.742Z,18.67
2022-09-23T14:24:30.099Z,18.18
2022-09-23T14:27:00.697Z,18.59
2022-09-23T14:29:32.421Z,18.45
2022-09-23T14:32:02.542Z,18.02
2022-09-23T14:34:48.707Z,18.22
2022-09-23T14:37:36.671Z,18.29
2022-09-23T14:40:12.339Z,17.95
2022-09-23T14:42:42.416Z,18.13
2022-09-23T14:45:15.273Z,18.48
2022-09-23T14:47:56.840Z,18.24
2022-09-23T14:50:43.645Z,18.55
2022-09-23T14:53:19.396Z,18.07
2022-09-23T14:55:47.579Z,18.40
2022-09-23T14:58:19.437Z,18.47
2022-09-23T15:00:54.389Z,18.38
2022-09-23T15:03:21.176Z,18.65
2022-09-23T15:05:49.545Z,18.76
2022-09-23T15:08:21.225Z,18.58
2022-09-23T15:10:48.736Z,18.75
2022-09-23T15:13:21.288Z,18.43
2022-09-23T15:15:47.818Z,18.16
2022-09-23T15:18:18.765Z,17.95
2022-09-23T15:21:12.886Z,18.04
2022-09-23T15:23:47.243Z,18.22
2022-09-23T15:26:20.631Z,18.13
2022-09-23T15:28:48.038Z,17.99
2022-09-23T15:31:16.725Z,17.98
2022-09-23T15:33:49.779Z,17.98
2022-09-23T15:36:26.525Z,18.07
2022-09-23T15:38:53.565Z,18.05
2022-09-23T15:41:20.036Z,18.14
2022-09-23T15:43:47.120Z,17.95
2022-09-23T15:46:26.669Z,17.76
2022-09-23T15:48:58.856Z,17.69
2022-09-23T15:51:26.646Z,17.59
2022-09-23T15:53:54.860Z,17.72
2022-09-23T15:56:21.917Z,17.70
2022-09-23T15:58:48.459Z,17.63
2022-09-23T16:01:28.203Z,17.58
2022-09-23T16:03:55.629Z,17.55
2022-09-23T16:06:23.530Z,17.53
2022-09-23T16:08:52.115Z,17.47
2022-09-23T16:11:22.517Z,17.54
2022-09-23T16:13:48.851Z,17.48
2022-09-23T16:16:15.236Z,17.42
2022-09-23T16:18:43.714Z,17.35
2022-09-23T16:21:14.519Z,17.17
2022-09-23T16:23:47.543Z,17.11
2022-09-23T16:26:22.527Z,17.14
2022-09-23T16:28:50.789Z,17.05
2022-09-23T16:31:17.746Z,16.93
2022-09-23T16:33:45.824Z,16.80
2022-09-23T16:36:28.597Z,16.63
2022-09-23T16:38:55.598Z,16.54
2022-09-23T16:41:27.587Z,16.22
2022-09-23T16:43:53.917Z,16.06
2022-09-23T16:46:21.287Z,15.87
2022-09-23T16:48:52.302Z,15.81
2022-09-23T16:51:21.704Z,15.69
2022-09-23T16:53:49.544Z,15.53
2022-09-23T16:56:17.537Z,15.35
2022-09-23T16:58:44.519Z,15.35
2022-09-23T17:01:41.371Z,15.16
2022-09-23T17:04:08.281Z,14.79
2022-09-23T17:06:34.831Z,14.79
2022-09-23T17:09:01.286Z,14.70
2022-09-23T17:11:33.906Z,14.76
2022-09-23T17:14:00.813Z,14.63
2022-09-23T17:16:30.356Z,14.53
2022-09-23T17:18:57.325Z,14.37
2022-09-23T17:21:26.735Z,14.25
2022-09-23T17:23:54.963Z,14.15
2022-09-23T17:26:23.269Z,14.13
2022-09-23T17:28:54.459Z,14.02
2022-09-23T17:31:22.394Z,13.93
2022-09-23T17:33:49.319Z,13.93
2022-09-23T17:36:16.316Z,13.81
2022-09-23T17:38:44.959Z,13.70
2022-09-23T17:41:13.198Z,13.62
2022-09-23T17:43:40.182Z,13.60
2022-09-23T17:46:10.169Z,13.59
2022-09-23T17:48:38.629Z,13.42
2022-09-23T17:51:11.426Z,13.39
2022-09-23T17:53:39.518Z,13.33
2022-09-23T17:56:29.711Z,13.35
2022-09-23T17:59:00.592Z,13.27
2022-09-23T18:01:27.354Z,13.23
2022-09-23T18:04:01.727Z,13.06
2022-09-23T18:06:33.554Z,13.15
2022-09-23T18:09:03.551Z,12.99
2022-09-23T18:11:41.227Z,12.86
2022-09-23T18:14:13.270Z,12.96
2022-09-23T18:16:40.807Z,12.94
2022-09-23T18:19:10.473Z,12.90
2022-09-23T18:21:40.091Z,12.81
2022-09-23T18:24:30.745Z,12.76
2022-09-23T18:26:56.074Z,12.60
2022-09-23T18:29:22.513Z,12.56
2022-09-23T18:31:50.031Z,12.61
2022-09-23T18:34:17.116Z,12.54
2022-09-23T18:36:44.503Z,12.62
2022-09-23T18:39:11.806Z,12.48
2022-09-23T18:41:38.501Z,12.52
2022-09-23T18:44:05.030Z,12.42
2022-09-23T18:46:32.977Z,12.41
2022-09-23T18:49:17.872Z,12.44
2022-09-23T18:51:57.751Z,12.44
2022-09-23T18:54:25.942Z,12.44
2022-09-23T18:56:55.155Z,12.44
2022-09-23T18:59:25.078Z,12.46
2022-09-23T19:01:55.370Z,12.45
2022-09-23T19:04:23.705Z,12.44
2022-09-23T19:06:51.019Z,12.37
2022-09-23T19:09:18.005Z,12.34
2022-09-23T19:11:44.473Z,12.30
2022-09-23T19:14:12.825Z,12.30
2022-09-23T19:16:41.291Z,12.21
2022-09-23T19:19:08.490Z,12.13
2022-09-23T19:21:36.009Z,12.10
2022-09-23T19:24:05.688Z,12.01
2022-09-23T19:26:34.585Z,11.99
2022-09-23T19:29:02.579Z,12.07
2022-09-23T19:31:33.175Z,12.13
2022-09-23T19:34:02.168Z,12.10
2022-09-23T19:36:30.900Z,12.08
2022-09-23T19:38:59.578Z,12.14
2022-09-23T19:41:28.159Z,11.98
2022-09-23T19:43:55.173Z,11.97
2022-09-23T19:46:23.275Z,12.00
2022-09-23T19:48:50.617Z,12.00
2022-09-23T19:51:19.404Z,11.88
2022-09-23T19:53:45.930Z,11.92
2022-09-23T19:56:15.707Z,11.99
2022-09-23T19:58:42.956Z,11.96
2022-09-23T20:01:09.424Z,11.87
2022-09-23T20:03:35.844Z,11.86
2022-09-23T20:06:02.364Z,11.78
2022-09-23T20:08:28.788Z,11.85
2022-09-23T20:10:55.158Z,11.86
2022-09-23T20:13:22.235Z,11.90
2022-09-23T20:15:48.904Z,11.73
2022-09-23T20:18:15.480Z,11.68
2022-09-23T20:20:42.281Z,11.62
2022-09-23T20:23:08.674Z,11.55
2022-09-23T20:25:55.034Z,11.45
2022-09-23T20:28:22.297Z,11.38
2022-09-23T20:30:48.914Z,11.26
2022-09-23T20:33:15.583Z,11.18
2022-09-23T20:35:43.950Z,11.16
2022-09-23T20:38:11.242Z,11.12
2022-09-23T20:40:38.419Z,11.10
2022-09-23T20:43:05.130Z,11.06
2022-09-23T20:45:32.024Z,11.08
2022-09-23T20:48:00.158Z,11.07
2022-09-23T20:50:26.667Z,11.03
2022-09-23T20:52:53.221Z,11.05
2022-09-23T20:55:19.597Z,10.99
2022-09-23T20:57:48.370Z,11.01
2022-09-23T21:00:15.251Z,10.97
2022-09-23T21:02:43.624Z,10.99
2022-09-23T21:05:10.452Z,10.98
2022-09-23T21:07:37.510Z,10.94
2022-09-23T21:10:06.846Z,10.97
2022-09-23T21:12:33.216Z,10.82
2022-09-23T21:14:59.589Z,10.76
2022-09-23T21:17:26.834Z,10.79
2022-09-23T21:19:53.167Z,10.73
2022-09-23T21:22:19.542Z,10.62
2022-09-23T21:25:25.950Z,10.63
2022-09-23T21:27:32.185Z,10.65
2022-09-23T21:29:59.120Z,10.66
2022-09-23T21:32:25.449Z,10.68
2022-09-23T21:34:52.576Z,10.70
2022-09-23T21:37:19.083Z,10.55
2022-09-23T21:40:05.475Z,10.46
2022-09-23T21:42:31.878Z,10.31
2022-09-23T21:44:58.273Z,10.32
2022-09-23T21:47:26.129Z,10.26
2022-09-23T21:49:52.459Z,10.33
2022-09-23T21:52:18.816Z,10.38
2022-09-23T21:54:45.806Z,10.28
2022-09-23T21:57:13.922Z,10.33
2022-09-23T21:59:40.272Z,10.31
2022-09-23T22:02:06.619Z,10.38
2022-09-23T22:04:34.355Z,10.26
2022-09-23T22:07:01.289Z,10.33
2022-09-23T22:09:27.725Z,10.28
2022-09-23T22:12:07.790Z,10.12
2022-09-23T22:14:34.359Z,10.14
2022-09-23T22:17:03.641Z,10.13
2022-09-23T22:19:36.674Z,10.00
2022-09-23T22:22:12.727Z,10.05
2022-09-23T22:24:42.328Z,10.02
2022-09-23T22:27:13.234Z,10.02
2022-09-23T22:29:58.480Z,10.00
2022-09-23T22:32:40.451Z,9.88
2022-09-23T22:35:09.306Z,10.02
2022-09-23T22:37:36.778Z,9.98
2022-09-23T22:40:09.832Z,10.03
2022-09-23T22:42:36.580Z,10.02
2022-09-23T22:45:05.733Z,9.98
2022-09-23T22:47:37.522Z,9.95
2022-09-23T22:50:08.745Z,9.90
2022-09-23T22:52:35.719Z,9.70
2022-09-23T22:55:03.613Z,9.70
2022-09-23T22:57:30.518Z,9.66
2022-09-23T22:59:56.862Z,9.68
2022-09-23T23:02:23.659Z,9.82
2022-09-23T23:04:50.860Z,9.74
2022-09-23T23:07:21.380Z,9.64
2022-09-23T23:09:50.176Z,9.56
2022-09-23T23:12:18.916Z,9.54
2022-09-23T23:14:46.120Z,9.48
2022-09-23T23:17:12.573Z,9.62
2022-09-23T23:19:39.130Z,9.75
2022-09-23T23:22:05.841Z,9.76
2022-09-23T23:24:32.349Z,9.72
2022-09-23T23:26:58.745Z,9.72
2022-09-23T23:29:25.119Z,9.73
2022-09-23T23:31:51.680Z,9.69
2022-09-23T23:34:21.815Z,9.70
2022-09-23T23:36:54.336Z,9.57
2022-09-23T23:39:23.706Z,9.35
2022-09-23T23:41:55.002Z,9.32
2022-09-23T23:44:23.521Z,9.28
2022-09-23T23:46:49.910Z,9.22
2022-09-23T23:49:16.477Z,9.16
2022-09-23T23:51:42.846Z,9.10
2022-09-23T23:54:11.549Z,9.13
2022-09-23T23:56:38.175Z,9.09
2022-09-23T23:59:04.538Z,8.95
